Time;durP1;ratioP1;P1;durP2;ratioP2;P2;SDS_P1;SDS_P2;PMS_P1;PMS_P2;Temp;Humidity;BMP_temperature;BMP_pressure;BME280_temperature;BME280_humidity;BME280_pressure;Samples;Min_cycle;Max_cycle;Signal;HPM_P1;HPM_P2
2023/05/18 00:02:04;;;;;;;3.20;2.23;;;20.20;50.40;20.90;101830.00;;;;5026374;28;20207;-61
2023/05/18 00:04:32;;;;;;;3.03;2.33;;;20.20;50.40;20.90;101829.00;;;;5026427;28;20209;-62
2023/05/18 00:07:02;;;;;;;3.40;2.40;;;20.20;50.40;20.90;101836.00;;;;5026518;28;20176;-62
2023/05/18 00:09:28;;;;;;;3.20;2.60;;;20.20;50.40;20.80;101826.00;;;;5026167;28;20253;-62
2023/05/18 00:11:54;;;;;;;3.03;2.50;;;20.20;50.40;20.80;101823.00;;;;5026084;28;20198;-62
2023/05/18 00:14:20;;;;;;;2.93;2.23;;;20.10;50.30;20.80;101808.00;;;;5021710;28;20189;-62
2023/05/18 00:16:46;;;;;;;3.30;2.50;;;20.10;50.30;20.80;101814.00;;;;5024591;28;20357;-62
2023/05/18 00:19:15;;;;;;;3.80;2.53;;;20.10;50.50;20.70;101823.00;;;;5029704;28;20672;-62
2023/05/18 00:21:42;;;;;;;2.87;2.37;;;20.10;50.60;20.70;101820.00;;;;5029816;28;20253;-62
2023/05/18 00:24:09;;;;;;;3.07;2.47;;;20.10;50.60;20.70;101809.00;;;;5029864;28;20215;-63
2023/05/18 00:26:39;;;;;;;4.03;2.60;;;20.10;50.70;20.70;101804.00;;;;5029889;28;20179;-63
2023/05/18 00:29:05;;;;;;;4.10;2.33;;;20.00;50.70;20.60;101814.00;;;;5013409;28;20191;-65
2023/05/18 00:31:35;;;;;;;3.17;2.23;;;20.00;50.70;20.60;101813.00;;;;5029868;28;20293;-62
2023/05/18 00:34:15;;;;;;;3.17;2.30;;;20.00;50.60;20.60;101827.00;;;;5065394;28;20609;-62
2023/05/18 00:36:41;;;;;;;2.47;2.10;;;20.00;50.70;20.60;101826.00;;;;5044315;28;20185;-64
2023/05/18 00:39:07;;;;;;;2.60;2.30;;;19.90;50.70;20.60;101823.00;;;;5045406;28;20276;-63
2023/05/18 00:41:33;;;;;;;2.90;2.30;;;19.90;50.80;20.50;101818.00;;;;5017642;28;20199;-62
2023/05/18 00:43:59;;;;;;;2.87;2.10;;;19.90;50.90;20.50;101821.00;;;;5025475;28;20184;-62
2023/05/18 00:46:26;;;;;;;2.57;2.20;;;19.90;50.90;20.50;101817.00;;;;5024188;28;20209;-62
2023/05/18 00:48:53;;;;;;;3.03;2.20;;;19.90;50.90;20.50;101818.00;;;;4991553;28;20207;-62
2023/05/18 00:51:22;;;;;;;2.97;2.30;;;19.80;50.90;20.40;101816.00;;;;5037671;28;20219;-62
2023/05/18 00:53:47;;;;;;;2.30;2.10;;;19.80;50.90;20.40;101804.00;;;;5038480;28;20249;-62
2023/05/18 00:56:13;;;;;;;2.30;2.10;;;19.80;51.00;20.40;101823.00;;;;5025420;28;20212;-61
2023/05/18 00:58:40;;;;;;;2.80;2.03;;;19.70;50.90;20.40;101818.00;;;;5025085;28;20176;-62
2023/05/18 01:01:05;;;;;;;2.40;2.20;;;19.70;51.00;20.30;101816.00;;;;5026406;28;20209;-63
2023/05/18 01:03:38;;;;;;;2.83;2.30;;;19.80;51.20;20.30;101800.00;;;;5017461;28;20210;-61
2023/05/18 01:06:05;;;;;;;2.27;2.00;;;19.70;51.10;20.30;101804.00;;;;5031387;28;20171;-62
2023/05/18 01:08:31;;;;;;;2.80;2.30;;;19.70;51.10;20.30;101821.00;;;;5035014;28;20197;-63
2023/05/18 01:11:14;;;;;;;2.63;2.17;;;19.60;51.10;20.20;101815.00;;;;5023771;28;20642;-62
2023/05/18 01:14:05;;;;;;;2.97;2.20;;;19.60;51.10;20.20;101821.00;;;;5025317;28;20200;-62
2023/05/18 01:16:42;;;;;;;2.43;2.00;;;19.60;51.10;20.20;101816.00;;;;5007363;28;20745;-62
2023/05/18 01:19:37;;;;;;;4.03;2.37;;;19.60;51.20;20.10;101812.00;;;;5023400;28;20251;-62
2023/05/18 01:22:12;;;;;;;2.27;2.07;;;19.60;51.20;20.10;101797.00;;;;5023514;28;20198;-62
2023/05/18 01:24:44;;;;;;;2.30;2.10;;;19.50;51.20;20.10;101814.00;;;;5023398;28;20171;-61
2023/05/18 01:27:10;;;;;;;2.37;2.13;;;19.50;51.20;20.10;101816.00;;;;5006649;28;20290;-62
2023/05/18 01:29:36;;;;;;;2.70;2.10;;;19.50;51.30;20.10;101795.00;;;;5023316;28;20193;-62
2023/05/18 01:32:08;;;;;;;2.43;1.90;;;19.50;51.30;20.10;101818.00;;;;5023329;28;20653;-62
2023/05/18 01:34:33;;;;;;;2.87;2.00;;;19.50;51.30;20.00;101813.00;;;;5023427;28;20281;-62
2023/05/18 01:36:59;;;;;;;2.83;2.20;;;19.40;51.20;20.00;101812.00;;;;5023260;28;20553;-63
2023/05/18 01:39:25;;;;;;;2.47;2.10;;;19.50;51.30;20.00;101813.00;;;;5023341;28;20203;-62
2023/05/18 01:41:59;;;;;;;3.23;2.33;;;19.40;51.40;20.00;101772.00;;;;5006730;28;20237;-64
2023/05/18 01:44:31;;;;;;;5.80;2.40;;;19.40;51.40;20.00;101810.00;;;;5000287;28;20197;-63
2023/05/18 01:47:11;;;;;;;2.80;2.20;;;19.40;51.50;19.90;101807.00;;;;5009751;28;20187;-63
2023/05/18 01:50:07;;;;;;;2.50;2.27;;;19.40;51.50;19.90;101808.00;;;;5009603;28;20179;-62
2023/05/18 01:53:08;;;;;;;3.20;2.20;;;19.40;51.40;19.90;101824.00;;;;5009745;28;20200;-62
2023/05/18 01:55:34;;;;;;;2.33;2.13;;;19.30;51.30;19.90;101822.00;;;;5010527;28;20267;-63
2023/05/18 01:58:00;;;;;;;3.37;2.10;;;19.30;51.30;19.80;101802.00;;;;5009341;28;20202;-63
2023/05/18 02:00:26;;;;;;;3.20;2.30;;;19.30;51.30;19.80;101799.00;;;;5009565;28;20642;-63
2023/05/18 02:02:51;;;;;;;3.10;2.30;;;19.30;51.30;19.80;101814.00;;;;5009120;28;20179;-66
2023/05/18 02:05:17;;;;;;;3.03;2.20;;;19.20;51.20;19.80;101815.00;;;;5010872;28;20676;-62
2023/05/18 02:07:46;;;;;;;2.47;1.90;;;19.20;51.30;19.80;101817.00;;;;5009396;28;20546;-63
2023/05/18 02:10:12;;;;;;;2.40;2.10;;;19.20;51.30;19.70;101808.00;;;;4993720;28;20270;-63
2023/05/18 02:12:38;;;;;;;2.67;2.07;;;19.20;51.30;19.70;101818.00;;;;4990131;28;20220;-62
2023/05/18 02:15:05;;;;;;;2.73;2.20;;;19.20;51.20;19.70;101817.00;;;;5009619;28;20183;-62
2023/05/18 02:17:32;;;;;;;2.80;2.30;;;19.20;51.20;19.70;101804.00;;;;5009182;28;20741;-63
2023/05/18 02:19:58;;;;;;;2.10;1.90;;;19.20;51.10;19.70;101815.00;;;;5009274;28;20179;-62
2023/05/18 02:22:23;;;;;;;2.57;2.03;;;19.20;51.20;19.70;101813.00;;;;5010945;28;20195;-61
2023/05/18 02:24:49;;;;;;;2.83;2.20;;;19.20;51.20;19.60;101813.00;;;;5010281;28;20203;-61
2023/05/18 02:27:15;;;;;;;2.17;1.97;;;19.10;51.20;19.60;101826.00;;;;4992769;28;20175;-61
2023/05/18 02:29:41;;;;;;;2.50;2.00;;;19.20;51.20;19.60;101821.00;;;;5010521;28;20499;-61
2023/05/18 02:32:07;;;;;;;1.93;1.80;;;19.10;51.20;19.60;101817.00;;;;5009389;28;20211;-62
2023/05/18 02:34:34;;;;;;;2.43;2.10;;;19.10;51.20;19.60;101813.00;;;;5010824;28;20184;-63
2023/05/18 02:37:03;;;;;;;2.30;2.00;;;19.10;51.20;19.60;101822.00;;;;5010112;28;20255;-61
2023/05/18 02:39:29;;;;;;;2.40;2.07;;;19.10;51.20;19.50;101808.00;;;;5009337;28;20195;-62
2023/05/18 02:41:55;;;;;;;2.33;2.00;;;19.10;51.20;19.50;101810.00;;;;5009999;28;20226;-62
2023/05/18 02:44:20;;;;;;;2.70;2.10;;;19.10;51.20;19.50;101823.00;;;;5010021;28;20203;-62
2023/05/18 02:46:46;;;;;;;2.60;1.90;;;19.10;51.80;19.50;101809.00;;;;5010170;28;20603;-62
2023/05/18 02:49:12;;;;;;;2.37;2.10;;;19.10;51.20;19.50;101821.00;;;;5008745;28;20206;-62
2023/05/18 02:51:38;;;;;;;2.57;2.00;;;19.00;51.10;19.40;101811.00;;;;5019425;28;20199;-62
2023/05/18 02:54:03;;;;;;;3.03;2.30;;;19.00;51.10;19.40;101827.00;;;;5021722;28;20199;-63
2023/05/18 02:56:31;;;;;;;2.30;1.93;;;19.00;51.10;19.40;101823.00;;;;5008873;28;20670;-62
2023/05/18 02:58:59;;;;;;;2.70;2.10;;;19.00;51.20;19.40;101833.00;;;;5010404;28;20191;-62
2023/05/18 03:01:25;;;;;;;2.53;2.23;;;19.00;51.20;19.40;101820.00;;;;5010085;28;20698;-61
2023/05/18 03:03:56;;;;;;;2.53;2.00;;;19.00;51.20;19.40;101827.00;;;;5010294;28;20203;-62
2023/05/18 03:06:25;;;;;;;3.00;2.10;;;18.90;51.80;19.40;101820.00;;;;5021774;28;20180;-61
2023/05/18 03:08:53;;;;;;;2.63;2.03;;;18.90;51.20;19.40;101812.00;;;;5019016;28;20184;-62
2023/05/18 03:11:20;;;;;;;2.27;1.97;;;18.90;51.20;19.30;101829.00;;;;5008514;28;20191;-62
2023/05/18 03:13:46;;;;;;;3.30;2.10;;;18.90;51.20;19.30;101823.00;;;;5001374;28;20192;-62
2023/05/18 03:16:12;;;;;;;3.03;2.10;;;18.90;51.20;19.30;101817.00;;;;5007722;28;20183;-63
2023/05/18 03:18:38;;;;;;;2.30;2.10;;;18.90;51.20;19.30;101828.00;;;;4999677;28;20183;-62
2023/05/18 03:21:04;;;;;;;2.67;2.00;;;18.90;51.20;19.30;101823.00;;;;5007619;28;20208;-60
2023/05/18 03:23:30;;;;;;;2.20;2.00;;;18.80;51.80;19.20;101830.00;;;;4988577;28;20549;-61
2023/05/18 03:25:56;;;;;;;2.73;2.10;;;18.80;51.20;19.20;101827.00;;;;5007912;28;20186;-60
2023/05/18 03:28:22;;;;;;;3.53;2.00;;;18.80;51.30;19.20;101821.00;;;;4990237;28;20195;-62
2023/05/18 03:30:47;;;;;;;2.23;1.90;;;18.90;51.50;19.20;101830.00;;;;4990975;28;20191;-60
2023/05/18 03:33:13;;;;;;;3.10;2.17;;;18.80;51.40;19.20;101823.00;;;;5008367;28;20199;-61
2023/05/18 03:35:39;;;;;;;3.03;2.10;;;18.80;51.40;19.20;101835.00;;;;5008775;28;20207;-60
2023/05/18 03:38:06;;;;;;;3.93;2.23;;;18.80;51.40;19.20;101836.00;;;;5006139;28;20625;-61
2023/05/18 03:40:31;;;;;;;5.37;3.00;;;18.70;50.80;19.10;101830.00;;;;5007420;28;20258;-61
2023/05/18 03:42:57;;;;;;;4.10;2.80;;;18.70;49.20;19.00;101824.00;;;;5007489;28;20175;-60
2023/05/18 03:45:23;;;;;;;3.47;2.63;;;18.70;49.10;19.00;101831.00;;;;5007190;28;20172;-61
2023/05/18 03:47:49;;;;;;;4.70;2.73;;;18.60;48.40;18.90;101812.00;;;;4991219;28;20175;-61
2023/05/18 03:50:15;;;;;;;5.27;3.13;;;18.60;47.90;18.80;101828.00;;;;5008374;28;20182;-60
2023/05/18 03:52:43;;;;;;;5.73;3.10;;;18.50;47.00;18.80;101838.00;;;;5009566;28;20272;-61
2023/05/18 03:55:09;;;;;;;7.87;3.20;;;18.50;46.70;18.80;101829.00;;;;5008757;28;20176;-61
2023/05/18 03:57:34;;;;;;;6.27;3.20;;;18.50;45.20;18.70;101824.00;;;;4988256;28;20550;-61
2023/05/18 04:00:05;;;;;;;4.73;3.17;;;18.50;45.20;18.70;101834.00;;;;5023423;28;20167;-61
2023/05/18 04:02:31;;;;;;;6.13;2.93;;;18.50;45.30;18.60;101828.00;;;;5008260;28;20528;-61
2023/05/18 04:04:57;;;;;;;6.03;3.23;;;18.50;44.20;18.60;101831.00;;;;5008948;28;20187;-61
2023/05/18 04:07:25;;;;;;;4.33;2.90;;;18.40;43.90;18.60;101826.00;;;;5008585;28;20202;-60
2023/05/18 04:09:53;;;;;;;4.77;3.17;;;18.40;43.90;18.50;101825.00;;;;5009178;28;20258;-60
2023/05/18 04:12:19;;;;;;;5.43;3.20;;;18.30;43.60;18.50;101826.00;;;;5008118;28;20556;-62
2023/05/18 04:14:48;;;;;;;6.63;2.90;;;18.30;43.40;18.50;101833.00;;;;5008382;28;20225;-61
2023/05/18 04:17:20;;;;;;;4.73;3.07;;;18.30;43.60;18.40;101841.00;;;;5007722;28;20199;-59
2023/05/18 04:19:47;;;;;;;9.07;3.43;;;18.30;43.90;18.40;101831.00;;;;5006017;28;20171;-62
2023/05/18 04:22:12;;;;;;;7.97;3.20;;;18.20;43.60;18.40;101840.00;;;;5006208;28;20796;-61
2023/05/18 04:24:40;;;;;;;6.17;3.30;;;18.20;43.40;18.30;101840.00;;;;4991983;28;20176;-61
2023/05/18 04:27:05;;;;;;;5.73;3.20;;;18.20;43.70;18.30;101841.00;;;;5008059;28;20173;-62
2023/05/18 04:29:31;;;;;;;7.50;3.50;;;18.10;43.10;18.30;101826.00;;;;4990968;28;20186;-61
2023/05/18 04:31:59;;;;;;;8.33;3.07;;;18.10;43.30;18.30;101844.00;;;;4991440;28;20222;-61
2023/05/18 04:34:29;;;;;;;8.57;3.63;;;18.10;43.80;18.20;101843.00;;;;5007003;28;20735;-61
2023/05/18 04:36:57;;;;;;;6.20;3.40;;;18.00;43.50;18.20;101837.00;;;;5007975;28;20661;-61
2023/05/18 04:39:23;;;;;;;6.07;3.10;;;18.10;43.70;18.20;101842.00;;;;5007408;28;20181;-61
2023/05/18 04:41:49;;;;;;;5.67;3.03;;;18.00;43.40;18.20;101848.00;;;;5007813;28;20213;-60
2023/05/18 04:44:18;;;;;;;6.30;3.17;;;18.00;43.40;18.20;101845.00;;;;5009017;28;20205;-61
2023/05/18 04:46:46;;;;;;;6.10;3.00;;;18.00;43.50;18.10;101829.00;;;;5008950;28;20212;-61
2023/05/18 04:49:12;;;;;;;4.07;2.90;;;18.00;44.10;18.10;101846.00;;;;5006128;28;20225;-62
2023/05/18 04:51:40;;;;;;;6.17;2.77;;;17.90;44.60;18.00;101841.00;;;;5015655;28;20203;-64
2023/05/18 04:54:07;;;;;;;5.97;2.77;;;17.80;45.10;18.00;101849.00;;;;5023734;28;20714;-61
2023/05/18 04:56:34;;;;;;;3.40;2.50;;;17.70;45.70;18.00;101849.00;;;;5009900;28;20183;-60
2023/05/18 04:59:00;;;;;;;4.73;2.80;;;17.70;46.10;18.00;101844.00;;;;5008624;28;20681;-62
2023/05/18 05:01:26;;;;;;;4.13;2.83;;;17.60;46.30;18.00;101850.00;;;;5009850;28;20223;-61
2023/05/18 05:03:52;;;;;;;4.00;2.60;;;17.60;46.80;18.00;101855.00;;;;5009131;28;20177;-61
2023/05/18 05:06:17;;;;;;;3.57;2.60;;;17.50;46.90;18.00;101860.00;;;;5024698;28;20185;-61
2023/05/18 05:08:43;;;;;;;2.97;2.40;;;17.50;47.20;18.00;101860.00;;;;5018168;28;20183;-63
2023/05/18 05:11:09;;;;;;;3.73;2.70;;;17.50;47.50;18.00;101869.00;;;;5010843;28;20203;-61
2023/05/18 05:13:35;;;;;;;3.80;2.60;;;17.50;47.70;17.90;101874.00;;;;4992159;28;20203;-61
2023/05/18 05:16:01;;;;;;;3.73;2.60;;;17.50;47.90;17.90;101871.00;;;;5008888;28;20181;-62
2023/05/18 05:18:27;;;;;;;3.80;2.70;;;17.50;48.10;17.90;101856.00;;;;5006484;28;20179;-60
2023/05/18 05:20:53;;;;;;;3.30;2.50;;;17.40;48.10;18.00;101870.00;;;;5012063;28;20192;-61
2023/05/18 05:23:18;;;;;;;3.67;2.50;;;17.40;48.10;17.90;101862.00;;;;5011449;28;20369;-62
2023/05/18 05:25:44;;;;;;;3.73;2.70;;;17.40;48.30;17.90;101858.00;;;;5012657;28;20171;-61
2023/05/18 05:28:10;;;;;;;4.07;2.40;;;17.40;48.40;17.90;101861.00;;;;5011320;28;20192;-60
2023/05/18 05:30:36;;;;;;;3.13;2.50;;;17.40;48.40;17.90;101860.00;;;;5012195;28;20751;-62
2023/05/18 05:33:01;;;;;;;3.53;2.50;;;17.40;48.60;17.90;101865.00;;;;5010651;28;20287;-62
2023/05/18 05:35:27;;;;;;;3.23;2.20;;;17.40;48.60;17.90;101869.00;;;;5012692;28;20186;-62
2023/05/18 05:37:53;;;;;;;3.27;2.27;;;17.40;48.70;17.90;101862.00;;;;4993894;28;20180;-61
2023/05/18 05:40:19;;;;;;;3.27;2.40;;;17.50;48.80;17.90;101861.00;;;;5010997;28;20202;-63
2023/05/18 05:42:44;;;;;;;4.53;2.87;;;17.50;48.90;17.90;101847.00;;;;4991524;28;20212;-61
2023/05/18 05:45:10;;;;;;;2.63;2.30;;;17.40;48.80;17.90;101873.00;;;;5027628;28;20180;-62
2023/05/18 05:47:36;;;;;;;4.33;2.40;;;17.50;49.00;17.90;101871.00;;;;5010283;28;20620;-62
2023/05/18 05:50:02;;;;;;;3.30;2.40;;;17.50;49.10;17.90;101884.00;;;;5010956;28;20658;-62
2023/05/18 05:52:27;;;;;;;3.63;2.20;;;17.50;49.10;17.90;101873.00;;;;5012082;28;20281;-63
2023/05/18 05:54:54;;;;;;;2.87;2.13;;;17.50;49.10;17.90;101862.00;;;;5011570;28;20186;-60
2023/05/18 05:57:20;;;;;;;3.60;2.40;;;17.50;49.10;17.90;101863.00;;;;5004965;28;20176;-62
2023/05/18 05:59:45;;;;;;;3.53;2.50;;;17.50;49.20;17.70;101871.00;;;;5007039;28;20531;-62
2023/05/18 06:02:11;;;;;;;2.63;2.20;;;17.50;49.20;17.90;101869.00;;;;4977683;28;20231;-63
2023/05/18 06:04:37;;;;;;;3.77;2.33;;;17.50;49.20;17.90;101845.00;;;;5010624;28;20191;-61
2023/05/18 06:07:03;;;;;;;2.83;2.13;;;17.50;49.30;17.90;101874.00;;;;5010421;28;20185;-63
2023/05/18 06:09:29;;;;;;;2.40;2.10;;;17.50;49.40;17.90;101884.00;;;;5009630;28;20178;-62
2023/05/18 06:11:55;;;;;;;2.10;1.90;;;17.50;49.40;17.90;101856.00;;;;5010396;28;20223;-61
2023/05/18 06:14:20;;;;;;;2.30;2.10;;;17.50;49.40;17.90;101878.00;;;;5010610;28;20199;-61
2023/05/18 06:16:46;;;;;;;3.80;2.40;;;17.50;49.50;17.90;101882.00;;;;5011423;28;20642;-61
2023/05/18 06:19:12;;;;;;;2.63;2.03;;;17.50;49.60;17.90;101870.00;;;;5009243;28;20205;-62
2023/05/18 06:21:38;;;;;;;2.27;2.07;;;17.40;49.40;17.90;101881.00;;;;4993574;28;20246;-62
2023/05/18 06:24:04;;;;;;;2.93;2.03;;;17.50;49.60;17.90;101883.00;;;;5010083;28;20561;-61
2023/05/18 06:26:30;;;;;;;3.77;2.30;;;17.50;49.70;17.90;101858.00;;;;5010106;28;20544;-62
2023/05/18 06:28:56;;;;;;;7.07;2.50;;;17.50;49.70;17.90;101875.00;;;;4992867;28;20187;-62
2023/05/18 06:31:22;;;;;;;3.00;2.17;;;17.50;49.80;17.90;101883.00;;;;5010081;28;20214;-62
2023/05/18 06:33:48;;;;;;;5.63;2.40;;;17.50;49.80;17.90;101884.00;;;;5009512;28;20212;-62
2023/05/18 06:36:17;;;;;;;3.47;2.57;;;17.50;49.80;17.90;101891.00;;;;5009897;28;20177;-62
2023/05/18 06:38:43;;;;;;;6.13;2.20;;;17.50;49.90;17.90;101897.00;;;;5010851;28;20180;-60
2023/05/18 06:41:09;;;;;;;3.30;2.40;;;17.50;50.00;17.90;101884.00;;;;5012251;28;20200;-60
2023/05/18 06:43:34;;;;;;;4.30;2.10;;;17.50;50.00;17.90;101874.00;;;;5013150;28;20192;-62
2023/05/18 06:46:00;;;;;;;3.83;2.10;;;17.50;50.10;17.90;101894.00;;;;5010236;28;20594;-62
2023/05/18 06:48:27;;;;;;;4.37;2.30;;;17.50;50.10;17.90;101892.00;;;;5009108;28;20207;-62
2023/05/18 06:50:53;;;;;;;3.00;2.13;;;17.50;50.10;17.90;101895.00;;;;5011873;28;20581;-64
2023/05/18 06:53:19;;;;;;;2.87;2.10;;;17.50;50.10;17.90;101896.00;;;;5029883;28;20214;-63
2023/05/18 06:55:44;;;;;;;4.00;2.30;;;17.50;50.10;17.90;101898.00;;;;5013043;28;20175;-61
2023/05/18 06:58:10;;;;;;;3.83;2.13;;;17.50;50.20;17.90;101904.00;;;;5012089;28;20170;-61
2023/05/18 07:00:37;;;;;;;2.83;2.20;;;17.50;50.30;17.90;101891.00;;;;5010936;28;20205;-62
2023/05/18 07:03:03;;;;;;;3.77;2.23;;;17.50;50.30;18.00;101889.00;;;;5010574;28;20732;-62
2023/05/18 07:05:29;;;;;;;3.00;1.90;;;17.50;50.30;18.00;101901.00;;;;4997990;28;20221;-62
2023/05/18 07:07:54;;;;;;;2.83;2.20;;;17.50;51.00;18.00;101888.00;;;;5010589;28;20237;-62
2023/05/18 07:10:21;;;;;;;5.97;2.23;;;17.50;50.30;18.00;101900.00;;;;4998108;28;20259;-62
2023/05/18 07:12:48;;;;;;;2.80;2.17;;;17.50;50.40;18.00;101894.00;;;;5010663;28;20258;-60
2023/05/18 07:15:14;;;;;;;3.23;2.00;;;17.50;50.40;18.00;101891.00;;;;5009536;28;20648;-61
2023/05/18 07:17:39;;;;;;;2.80;1.90;;;17.40;50.30;18.00;101901.00;;;;5008547;28;20170;-61
2023/05/18 07:20:06;;;;;;;2.30;2.00;;;17.50;50.40;18.00;101893.00;;;;5009380;28;20182;-60
2023/05/18 07:22:33;;;;;;;2.47;2.07;;;17.50;50.40;18.00;101894.00;;;;4989546;28;20203;-62
2023/05/18 07:24:59;;;;;;;3.70;2.10;;;17.50;50.50;18.00;101881.00;;;;5009570;28;20209;-62
2023/05/18 07:27:26;;;;;;;4.13;1.93;;;17.50;50.50;17.90;101893.00;;;;5008349;28;20186;-61
2023/05/18 07:29:51;;;;;;;3.17;2.10;;;17.50;50.60;18.00;101899.00;;;;5009077;28;20187;-61
2023/05/18 07:32:17;;;;;;;2.50;1.80;;;17.50;50.60;18.00;101894.00;;;;5005258;28;20311;-61
2023/05/18 07:34:45;;;;;;;3.93;2.23;;;17.50;50.70;18.00;101897.00;;;;4977871;28;20176;-60
2023/05/18 07:37:11;;;;;;;2.40;2.10;;;17.40;50.70;18.00;101818.00;;;;4991325;28;20645;-60
2023/05/18 07:39:37;;;;;;;2.37;1.90;;;17.50;50.80;18.00;101888.00;;;;5008383;28;20208;-61
2023/05/18 07:42:03;;;;;;;2.63;2.00;;;17.50;50.90;18.00;101881.00;;;;4991810;28;20577;-61
2023/05/18 07:44:29;;;;;;;3.47;2.10;;;17.40;50.80;18.00;101887.00;;;;5009686;28;20277;-61
2023/05/18 07:46:55;;;;;;;2.50;1.80;;;17.50;50.90;18.00;101897.00;;;;5009283;28;20674;-62
2023/05/18 07:49:22;;;;;;;2.87;1.90;;;17.40;51.00;18.00;101890.00;;;;4990116;28;20176;-61
2023/05/18 07:51:48;;;;;;;2.27;1.90;;;17.40;51.00;18.00;101882.00;;;;5008293;28;20208;-63
2023/05/18 07:54:14;;;;;;;2.17;1.80;;;17.40;51.10;18.00;101871.00;;;;5008791;28;20206;-60
2023/05/18 07:56:40;;;;;;;1.93;1.77;;;17.40;51.10;18.00;101878.00;;;;5008521;28;20810;-62
2023/05/18 07:59:07;;;;;;;2.30;1.90;;;17.40;51.20;18.00;101877.00;;;;5008634;28;20196;-62
2023/05/18 08:01:34;;;;;;;1.90;1.70;;;17.40;51.30;18.00;101875.00;;;;5008758;28;20276;-62
2023/05/18 08:04:00;;;;;;;2.70;1.93;;;17.40;51.40;18.00;101874.00;;;;5009459;28;20182;-61
2023/05/18 08:06:26;;;;;;;2.40;1.80;;;17.40;51.50;18.00;101870.00;;;;5008830;28;20654;-61
2023/05/18 08:08:51;;;;;;;2.17;1.97;;;17.40;51.60;18.00;101870.00;;;;4991036;28;20180;-61
2023/05/18 08:11:17;;;;;;;2.47;2.07;;;17.40;51.60;18.00;101864.00;;;;5008264;28;20206;-61
2023/05/18 08:13:43;;;;;;;2.23;1.70;;;17.40;51.70;18.00;101843.00;;;;5008306;28;20207;-61
2023/05/18 08:16:08;;;;;;;6.90;2.20;;;17.40;51.70;18.00;101875.00;;;;5008063;28;20185;-60
2023/05/18 08:18:34;;;;;;;2.53;2.00;;;17.40;51.80;18.00;101859.00;;;;5006599;28;20178;-62
2023/05/18 08:21:02;;;;;;;3.53;1.90;;;17.40;51.90;18.00;101860.00;;;;5008018;28;20227;-61
2023/05/18 08:23:28;;;;;;;2.87;1.90;;;17.40;51.90;18.00;101849.00;;;;5009144;28;20192;-62
2023/05/18 08:25:55;;;;;;;2.70;1.97;;;17.40;52.00;18.00;101861.00;;;;5007241;28;20184;-62
2023/05/18 08:28:22;;;;;;;3.20;2.00;;;17.40;52.00;18.00;101854.00;;;;5008241;28;20184;-62
2023/05/18 08:30:47;;;;;;;2.37;2.00;;;17.40;52.10;18.00;101844.00;;;;5024454;28;20195;-61
2023/05/18 08:33:13;;;;;;;2.10;1.90;;;17.40;52.10;18.00;101852.00;;;;5007322;28;20221;-61
2023/05/18 08:35:39;;;;;;;2.70;2.00;;;17.40;52.10;18.00;101853.00;;;;5007822;28;20202;-60
2023/05/18 08:38:04;;;;;;;3.07;2.07;;;17.40;52.30;18.10;101852.00;;;;5008517;28;20188;-63
2023/05/18 08:40:41;;;;;;;2.67;2.00;;;17.40;52.40;18.00;101836.00;;;;5024514;28;20182;-61
2023/05/18 08:43:17;;;;;;;2.13;1.87;;;17.40;51.90;18.00;101842.00;;;;5008329;28;20187;-61
2023/05/18 08:45:53;;;;;;;2.93;1.90;;;17.30;51.90;18.00;101843.00;;;;4978130;28;20335;-62
2023/05/18 08:48:21;;;;;;;4.80;2.33;;;17.40;51.70;18.00;101840.00;;;;4989405;28;20270;-62
2023/05/18 08:50:48;;;;;;;4.30;2.40;;;17.40;51.60;18.00;101838.00;;;;5007793;28;20199;-63
2023/05/18 08:53:13;;;;;;;5.80;2.50;;;17.30;51.00;17.90;101845.00;;;;5007651;28;20210;-61
2023/05/18 08:55:39;;;;;;;3.80;2.70;;;17.30;50.30;17.90;101837.00;;;;5024651;28;20179;-61
2023/05/18 08:58:06;;;;;;;4.50;2.63;;;17.30;50.00;17.90;101838.00;;;;5001289;28;20783;-61
2023/05/18 09:00:32;;;;;;;4.37;2.53;;;17.30;49.50;17.90;101850.00;;;;5008217;28;20187;-62
2023/05/18 09:02:58;;;;;;;4.83;2.67;;;17.30;48.00;17.90;101839.00;;;;5011296;28;20561;-62
2023/05/18 09:05:24;;;;;;;4.20;2.50;;;17.20;48.30;17.90;101836.00;;;;4993878;28;20175;-62
2023/05/18 09:07:50;;;;;;;5.93;2.60;;;17.30;48.80;17.90;101826.00;;;;5011262;28;20183;-63
2023/05/18 09:10:16;;;;;;;5.27;2.40;;;17.30;48.90;17.90;101835.00;;;;5022421;28;20176;-62
2023/05/18 09:12:45;;;;;;;5.23;2.60;;;17.30;49.10;17.90;101838.00;;;;5025079;28;20203;-61
2023/05/18 09:15:11;;;;;;;5.37;3.00;;;17.30;49.20;17.90;101841.00;;;;5007344;28;20172;-62
2023/05/18 09:17:37;;;;;;;4.83;2.80;;;17.20;48.50;17.90;101838.00;;;;4995906;28;20195;-61
2023/05/18 09:20:06;;;;;;;11.40;2.97;;;17.20;48.50;17.90;101837.00;;;;5012005;28;20175;-60
2023/05/18 09:22:34;;;;;;;6.83;3.20;;;17.20;50.50;17.90;101816.00;;;;5012091;28;20227;-62
2023/05/18 09:25:03;;;;;;;9.33;3.10;;;17.20;50.10;17.90;101833.00;;;;4995768;28;20187;-62
2023/05/18 09:27:30;;;;;;;8.97;2.80;;;17.30;50.00;17.90;101823.00;;;;5009407;28;20230;-61
2023/05/18 09:29:56;;;;;;;10.10;3.03;;;17.30;49.50;17.90;101827.00;;;;4984108;28;20183;-60
2023/05/18 09:32:22;;;;;;;5.17;2.87;;;17.30;50.80;17.90;101852.00;;;;5011962;28;20299;-61
2023/05/18 09:34:48;;;;;;;6.27;2.60;;;17.30;50.20;18.00;101833.00;;;;5011564;28;20216;-61
2023/05/18 09:37:18;;;;;;;6.37;2.97;;;17.30;50.70;18.00;101845.00;;;;5010962;28;20182;-60
2023/05/18 09:39:49;;;;;;;6.83;2.70;;;17.30;51.50;18.00;101828.00;;;;5011689;28;20314;-61
2023/05/18 09:42:15;;;;;;;5.80;2.73;;;17.30;51.80;18.10;101830.00;;;;5010126;28;20229;-61
2023/05/18 09:44:41;;;;;;;5.00;2.93;;;17.30;52.00;18.10;101833.00;;;;5010356;28;20268;-61
2023/05/18 09:47:08;;;;;;;6.13;2.80;;;17.40;52.40;18.10;101831.00;;;;5011604;28;20593;-62
2023/05/18 09:49:36;;;;;;;6.40;2.60;;;17.40;52.40;18.10;101813.00;;;;5009754;28;20175;-62
2023/05/18 09:52:05;;;;;;;4.87;2.60;;;17.40;52.60;18.10;101830.00;;;;5010033;28;20199;-61
2023/05/18 09:54:31;;;;;;;6.00;2.43;;;17.40;52.80;18.10;101832.00;;;;4990397;28;20211;-61
2023/05/18 09:56:57;;;;;;;5.80;2.73;;;17.40;53.00;18.20;101830.00;;;;5025526;28;20174;-62
2023/05/18 09:59:23;;;;;;;3.80;2.30;;;17.40;53.10;18.20;101815.00;;;;5014857;28;20207;-61
2023/05/18 10:01:56;;;;;;;5.93;2.83;;;17.40;53.10;18.20;101823.00;;;;5014915;28;20195;-62
2023/05/18 10:04:22;;;;;;;4.87;2.50;;;17.40;53.40;18.20;101809.00;;;;5011406;28;20184;-61
2023/05/18 10:06:48;;;;;;;3.70;2.40;;;17.50;53.60;18.20;101819.00;;;;4994500;28;20541;-61
2023/05/18 10:09:15;;;;;;;3.63;2.30;;;17.40;53.70;18.20;101819.00;;;;5011194;28;20180;-61
2023/05/18 10:11:42;;;;;;;4.83;2.27;;;17.50;53.90;18.20;101821.00;;;;4994648;28;20199;-62
2023/05/18 10:14:10;;;;;;;3.27;2.33;;;17.50;54.10;18.20;101806.00;;;;5012227;28;20202;-62
2023/05/18 10:16:36;;;;;;;3.80;2.23;;;17.50;54.00;18.20;101807.00;;;;4994770;28;20233;-62
2023/05/18 10:19:02;;;;;;;3.60;2.27;;;17.50;54.20;18.20;101808.00;;;;5010693;28;20187;-61
2023/05/18 10:21:28;;;;;;;3.73;2.40;;;17.60;54.30;18.30;101801.00;;;;4978195;28;20199;-62
2023/05/18 10:23:54;;;;;;;4.70;2.50;;;17.60;54.30;18.30;101782.00;;;;4994227;28;20671;-62
2023/05/18 10:26:21;;;;;;;3.37;2.40;;;17.60;54.50;18.30;101806.00;;;;5010780;28;20232;-62
2023/05/18 10:28:48;;;;;;;4.47;2.17;;;17.60;54.80;18.30;101795.00;;;;5010702;28;20195;-62
2023/05/18 10:31:15;;;;;;;3.87;2.30;;;17.60;54.80;18.30;101791.00;;;;5010705;28;20198;-62
2023/05/18 10:33:40;;;;;;;3.70;2.30;;;17.60;55.10;18.30;101775.00;;;;5010383;28;20777;-61
2023/05/18 10:36:06;;;;;;;3.57;2.30;;;17.70;55.20;18.40;101795.00;;;;5010417;28;20198;-63
2023/05/18 10:38:32;;;;;;;2.93;2.10;;;17.70;55.30;18.40;101768.00;;;;4994303;28;20173;-62
2023/05/18 10:40:59;;;;;;;3.03;2.20;;;17.70;55.40;18.40;101791.00;;;;5011473;28;20199;-62
2023/05/18 10:43:26;;;;;;;4.00;2.17;;;17.70;55.40;18.40;101789.00;;;;4996637;28;20544;-62
2023/05/18 10:45:57;;;;;;;3.90;2.30;;;17.70;55.40;18.40;101793.00;;;;5012436;28;20185;-63
2023/05/18 10:48:23;;;;;;;4.03;2.10;;;17.70;55.50;18.50;101793.00;;;;5011232;28;20268;-62